Time;durP1;ratioP1;P1;durP2;ratioP2;P2;SDS_P1;SDS_P2;PMS_P1;PMS_P2;Temp;Humidity;BMP_temperature;BMP_pressure;BME280_temperature;BME280_humidity;BME280_pressure;Samples;Min_cycle;Max_cycle;Signal;HPM_P1;HPM_P2
2022/11/26 00:00:54;;;;;;;12.23;11.50;;;19.90;62.10;;;;;;5075248;28;20483;-57
2022/11/26 00:03:22;;;;;;;11.73;11.33;;;19.90;62.20;;;;;;5075239;28;20451;-50
2022/11/26 00:05:52;;;;;;;10.73;10.40;;;20.00;62.30;;;;;;5075222;28;20526;-48
2022/11/26 00:08:22;;;;;;;10.70;10.30;;;19.90;62.40;;;;;;5075056;28;20532;-50
2022/11/26 00:10:51;;;;;;;11.03;10.70;;;19.90;62.40;;;;;;5075218;28;20447;-53
2022/11/26 00:13:22;;;;;;;11.37;10.97;;;19.90;62.50;;;;;;5074962;28;20443;-49
2022/11/26 00:15:50;;;;;;;10.50;10.20;;;19.90;62.60;;;;;;5075044;28;20482;-52
2022/11/26 00:18:17;;;;;;;11.67;11.27;;;19.90;62.60;;;;;;5074844;28;20558;-49
2022/11/26 00:20:45;;;;;;;11.27;10.87;;;19.90;62.60;;;;;;5074872;28;20565;-49
2022/11/26 00:23:20;;;;;;;11.20;10.80;;;19.90;62.60;;;;;;5074832;28;20541;-49
2022/11/26 00:25:49;;;;;;;10.40;10.10;;;19.90;62.60;;;;;;5074936;28;20442;-50
2022/11/26 00:28:26;;;;;;;11.13;10.73;;;19.90;63.30;;;;;;5074788;28;20550;-50
2022/11/26 00:30:54;;;;;;;11.17;10.77;;;20.00;62.70;;;;;;5074791;28;20526;-49
2022/11/26 00:33:22;;;;;;;11.00;10.47;;;19.90;62.50;;;;;;5074589;28;20794;-49
2022/11/26 00:35:50;;;;;;;11.13;10.73;;;20.00;62.60;;;;;;5074686;28;21028;-50
2022/11/26 00:38:19;;;;;;;10.73;10.33;;;20.00;62.60;;;;;;5074627;28;20502;-49
2022/11/26 00:40:47;;;;;;;11.17;10.87;;;20.00;62.50;;;;;;5074588;28;20493;-51
2022/11/26 00:43:15;;;;;;;11.23;10.83;;;20.00;62.50;;;;;;5074339;28;20478;-49
2022/11/26 00:45:44;;;;;;;11.13;10.83;;;20.00;62.50;;;;;;5074533;28;20449;-51
2022/11/26 00:48:11;;;;;;;11.50;11.10;;;20.00;62.50;;;;;;5074416;28;20525;-51
2022/11/26 00:50:40;;;;;;;11.40;11.00;;;20.00;62.50;;;;;;5074427;28;20534;-49
2022/11/26 00:53:10;;;;;;;11.57;10.97;;;20.00;62.50;;;;;;5074217;28;20445;-49
2022/11/26 00:55:39;;;;;;;10.90;10.53;;;19.90;62.30;;;;;;5074280;28;20439;-54
2022/11/26 00:58:07;;;;;;;10.80;10.50;;;19.90;62.40;;;;;;5074213;28;20508;-49
2022/11/26 01:00:35;;;;;;;12.47;12.07;;;20.00;62.40;;;;;;5074195;28;20574;-49
2022/11/26 01:03:03;;;;;;;11.43;11.03;;;20.00;62.40;;;;;;5073488;28;20482;-49
2022/11/26 01:05:32;;;;;;;11.60;11.10;;;20.00;62.40;;;;;;5074117;28;20481;-49
2022/11/26 01:08:02;;;;;;;11.47;10.97;;;20.00;62.40;;;;;;5073960;28;20455;-54
2022/11/26 01:10:31;;;;;;;11.40;10.90;;;20.00;62.30;;;;;;5081662;22;20518;-55
2022/11/26 01:12:58;;;;;;;11.37;11.07;;;20.00;62.30;;;;;;5053865;28;20444;-58
2022/11/26 01:15:26;;;;;;;11.23;10.83;;;20.00;63.10;;;;;;5053888;28;20440;-58
2022/11/26 01:17:54;;;;;;;10.73;10.43;;;19.90;62.30;;;;;;5053861;28;20448;-57
2022/11/26 01:20:25;;;;;;;11.20;10.90;;;19.90;62.20;;;;;;5053672;28;20901;-57
2022/11/26 01:22:52;;;;;;;12.03;11.57;;;19.90;62.20;;;;;;5053518;28;20997;-54
2022/11/26 01:25:21;;;;;;;11.60;11.17;;;19.90;62.30;;;;;;5053709;28;20531;-58
2022/11/26 01:27:47;;;;;;;12.07;11.63;;;19.90;62.20;;;;;;5053650;28;20944;-57
2022/11/26 01:30:19;;;;;;;11.17;10.77;;;19.90;62.20;;;;;;5053864;28;20491;-54
2022/11/26 01:32:46;;;;;;;11.97;11.30;;;19.90;62.20;;;;;;5053381;28;20451;-57
2022/11/26 01:35:13;;;;;;;11.33;10.93;;;19.90;62.10;;;;;;5053565;28;20466;-58
2022/11/26 01:37:42;;;;;;;10.50;10.10;;;19.90;62.20;;;;;;5053501;28;20447;-57
2022/11/26 01:40:31;;;;;;;11.17;10.77;;;19.90;62.20;;;;;;5053403;28;20503;-55
2022/11/26 01:43:03;;;;;;;11.10;10.80;;;19.90;62.10;;;;;;5053264;28;20527;-55
2022/11/26 01:45:30;;;;;;;11.50;11.00;;;19.90;62.20;;;;;;5053509;28;20539;-56
2022/11/26 01:47:56;;;;;;;11.37;11.07;;;19.90;62.20;;;;;;5053265;28;20451;-59
2022/11/26 01:50:52;;;;;;;11.37;10.87;;;19.90;62.20;;;;;;5053232;28;20475;-57
2022/11/26 01:53:28;;;;;;;10.90;10.40;;;19.90;62.20;;;;;;5050991;28;20452;-59
2022/11/26 01:55:59;;;;;;;11.77;11.27;;;19.90;62.20;;;;;;5053246;28;20523;-58
2022/11/26 01:58:31;;;;;;;10.93;10.63;;;19.90;62.20;;;;;;5051468;28;20479;-57
2022/11/26 02:00:58;;;;;;;11.37;10.97;;;19.90;63.50;;;;;;5052821;28;21015;-57
2022/11/26 02:03:26;;;;;;;11.03;10.63;;;19.80;64.50;;;;;;5052962;28;20503;-56
2022/11/26 02:05:59;;;;;;;10.47;10.17;;;19.80;64.00;;;;;;5052924;28;20502;-56
2022/11/26 02:08:30;;;;;;;10.40;10.10;;;19.80;64.00;;;;;;5035195;28;20948;-58
2022/11/26 02:10:57;;;;;;;11.27;10.87;;;19.90;64.90;;;;;;5032871;28;20444;-61
2022/11/26 02:13:25;;;;;;;10.80;10.40;;;19.90;63.90;;;;;;5032836;28;20955;-58
2022/11/26 02:15:59;;;;;;;10.47;10.07;;;20.00;63.80;;;;;;5031984;28;20441;-58
2022/11/26 02:18:30;;;;;;;10.63;10.33;;;20.10;63.70;;;;;;5049839;28;20554;-54
2022/11/26 02:21:03;;;;;;;10.57;10.17;;;20.10;63.90;;;;;;5052540;28;21154;-53
2022/11/26 02:24:07;;;;;;;10.40;10.10;;;20.30;64.20;;;;;;5052636;28;20490;-55
2022/11/26 02:27:20;;;;;;;10.40;10.10;;;20.50;64.30;;;;;;5047714;28;20988;-62
2022/11/26 02:30:03;;;;;;;10.93;10.53;;;20.60;64.10;;;;;;4990976;28;20537;-61
2022/11/26 02:32:38;;;;;;;10.70;10.27;;;20.60;61.90;;;;;;5051026;28;20452;-57
2022/11/26 02:35:11;;;;;;;11.37;10.97;;;20.70;64.50;;;;;;5049123;28;20440;-60
2022/11/26 02:37:45;;;;;;;10.43;10.13;;;20.80;64.20;;;;;;5032531;28;20874;-57
2022/11/26 02:40:12;;;;;;;11.90;11.40;;;21.00;63.40;;;;;;5032353;28;20569;-52
2022/11/26 02:42:39;;;;;;;10.53;10.13;;;21.10;62.70;;;;;;5032116;28;20490;-57
2022/11/26 02:45:10;;;;;;;10.93;10.53;;;21.10;62.30;;;;;;5035190;28;20444;-56
2022/11/26 02:47:40;;;;;;;10.87;10.47;;;21.20;61.50;;;;;;5052361;28;20863;-58
2022/11/26 02:50:10;;;;;;;12.67;12.17;;;21.20;60.90;;;;;;5052158;28;20506;-53
2022/11/26 02:52:39;;;;;;;11.33;10.93;;;21.20;63.10;;;;;;5050269;28;20951;-53
2022/11/26 02:55:09;;;;;;;11.43;10.73;;;21.20;63.00;;;;;;5052138;28;20451;-54
2022/11/26 02:57:43;;;;;;;11.33;10.73;;;21.40;63.10;;;;;;5051943;28;20445;-58
2022/11/26 03:00:13;;;;;;;10.20;9.90;;;21.40;61.60;;;;;;5051791;28;20484;-58
2022/11/26 03:02:45;;;;;;;10.93;10.63;;;21.50;61.30;;;;;;5043325;28;20978;-56
2022/11/26 03:05:14;;;;;;;10.87;10.57;;;21.50;60.90;;;;;;5032136;28;20441;-57
2022/11/26 03:07:41;;;;;;;10.33;10.03;;;21.60;61.50;;;;;;5032249;28;20524;-56
2022/11/26 03:10:09;;;;;;;10.53;10.23;;;21.60;60.70;;;;;;5031783;28;20590;-56
2022/11/26 03:12:37;;;;;;;12.27;11.53;;;21.60;60.50;;;;;;5035159;28;20453;-58
2022/11/26 03:15:05;;;;;;;11.77;11.37;;;21.70;61.10;;;;;;5051650;28;20962;-59
2022/11/26 03:17:33;;;;;;;26.23;11.77;;;21.60;59.70;;;;;;5051949;28;20570;-57
2022/11/26 03:20:00;;;;;;;11.87;11.20;;;21.40;59.40;;;;;;5038499;28;20489;-56
2022/11/26 03:22:27;;;;;;;12.30;11.80;;;21.30;59.70;;;;;;5031591;28;20441;-58
2022/11/26 03:24:53;;;;;;;11.20;10.90;;;21.20;60.10;;;;;;5031703;28;20452;-54
2022/11/26 03:27:20;;;;;;;11.50;11.10;;;21.00;60.50;;;;;;5035677;28;20965;-58
2022/11/26 03:29:47;;;;;;;11.60;11.00;;;20.90;60.90;;;;;;5051398;28;20468;-56
2022/11/26 03:32:14;;;;;;;11.63;11.17;;;20.80;61.10;;;;;;5051436;28;20867;-59
2022/11/26 03:34:42;;;;;;;10.77;10.37;;;20.80;61.60;;;;;;5051541;28;20436;-58
2022/11/26 03:37:09;;;;;;;11.77;11.23;;;20.70;61.80;;;;;;5048608;28;20449;-58
2022/11/26 03:39:36;;;;;;;11.10;10.60;;;20.70;62.20;;;;;;5042766;28;20465;-58
2022/11/26 03:42:03;;;;;;;11.53;11.23;;;20.60;62.40;;;;;;5031273;28;20910;-56
2022/11/26 03:44:30;;;;;;;11.27;10.87;;;20.60;62.80;;;;;;5031475;28;20540;-56
2022/11/26 03:46:56;;;;;;;12.17;11.77;;;20.50;63.00;;;;;;5031826;28;20536;-57
2022/11/26 03:49:23;;;;;;;10.93;10.50;;;20.50;63.10;;;;;;5051319;28;20460;-59
2022/11/26 03:51:52;;;;;;;11.10;10.80;;;20.40;63.20;;;;;;5051113;28;20810;-55
2022/11/26 03:54:18;;;;;;;10.80;10.50;;;20.40;63.50;;;;;;5051289;28;20542;-57
2022/11/26 03:56:45;;;;;;;11.63;11.13;;;20.40;63.60;;;;;;5051337;28;20471;-58
2022/11/26 03:59:12;;;;;;;11.43;11.03;;;20.30;63.70;;;;;;5042206;28;20502;-55
2022/11/26 04:01:39;;;;;;;11.20;10.70;;;20.30;63.80;;;;;;5051149;28;20995;-58
2022/11/26 04:04:06;;;;;;;10.87;10.53;;;20.30;64.00;;;;;;5051158;28;20444;-58
2022/11/26 04:06:33;;;;;;;10.83;10.53;;;20.30;64.20;;;;;;5051432;28;20474;-56
2022/11/26 04:09:01;;;;;;;11.13;10.83;;;20.30;64.40;;;;;;5033876;28;20480;-58
2022/11/26 04:11:28;;;;;;;11.10;10.67;;;20.30;64.50;;;;;;5031053;28;20524;-56
2022/11/26 04:13:54;;;;;;;12.50;12.00;;;20.30;64.50;;;;;;5031290;28;20441;-58
2022/11/26 04:16:21;;;;;;;11.23;10.93;;;20.30;64.50;;;;;;5031253;28;20447;-59
2022/11/26 04:18:48;;;;;;;11.40;11.10;;;20.30;64.40;;;;;;5035155;28;20500;-56
2022/11/26 04:21:15;;;;;;;11.53;11.13;;;20.40;64.60;;;;;;5030976;28;20564;-57
2022/11/26 04:23:42;;;;;;;11.23;10.93;;;20.40;64.70;;;;;;5031138;28;20447;-59
2022/11/26 04:26:10;;;;;;;11.73;11.33;;;20.40;64.60;;;;;;5031127;28;20487;-58
2022/11/26 04:28:37;;;;;;;11.30;10.90;;;20.40;64.70;;;;;;5043970;28;20448;-56
2022/11/26 04:31:04;;;;;;;11.33;11.03;;;20.40;64.70;;;;;;5050740;28;20468;-57
2022/11/26 04:33:31;;;;;;;12.00;11.50;;;20.40;64.70;;;;;;5050833;28;20540;-58
2022/11/26 04:35:57;;;;;;;11.27;10.97;;;20.40;64.90;;;;;;5045841;28;20527;-57
2022/11/26 04:38:24;;;;;;;10.90;10.60;;;20.40;64.90;;;;;;5031371;28;20524;-55
2022/11/26 04:40:51;;;;;;;10.87;10.57;;;20.40;64.90;;;;;;5034657;28;20506;-56
2022/11/26 04:43:19;;;;;;;10.97;10.57;;;20.40;65.20;;;;;;5034431;28;20451;-57
2022/11/26 04:45:46;;;;;;;11.13;10.73;;;20.40;65.50;;;;;;5037351;28;20466;-56
2022/11/26 04:48:13;;;;;;;11.50;11.10;;;20.40;65.50;;;;;;5054503;28;20448;-58
2022/11/26 04:50:40;;;;;;;11.67;11.27;;;20.40;65.50;;;;;;5054391;28;20913;-57
2022/11/26 04:53:07;;;;;;;11.40;11.03;;;20.50;65.60;;;;;;5054141;28;20440;-59
2022/11/26 04:55:33;;;;;;;11.93;11.63;;;20.50;65.50;;;;;;5053213;28;20535;-58
2022/11/26 04:58:00;;;;;;;11.60;11.20;;;20.50;65.40;;;;;;5034432;28;20539;-58
2022/11/26 05:00:29;;;;;;;10.70;10.40;;;20.50;65.30;;;;;;5034171;28;20562;-55
2022/11/26 05:02:55;;;;;;;11.83;11.33;;;20.50;65.30;;;;;;5034119;28;20445;-58
2022/11/26 05:05:22;;;;;;;12.70;12.10;;;20.50;65.30;;;;;;5034264;28;20532;-58
2022/11/26 05:07:49;;;;;;;11.37;10.97;;;20.50;65.40;;;;;;5053227;28;20888;-58
2022/11/26 05:10:16;;;;;;;11.90;11.50;;;20.50;65.40;;;;;;5053929;28;20471;-57
2022/11/26 05:12:43;;;;;;;12.50;12.10;;;20.60;65.60;;;;;;5053763;28;20831;-59
2022/11/26 05:15:10;;;;;;;11.80;11.40;;;20.60;65.60;;;;;;5053921;28;20444;-58
2022/11/26 05:17:38;;;;;;;11.70;11.20;;;20.60;65.60;;;;;;5036497;28;20445;-57
2022/11/26 05:20:07;;;;;;;11.60;11.10;;;20.60;65.60;;;;;;5033980;28;20465;-58
2022/11/26 05:22:34;;;;;;;11.23;10.83;;;20.60;65.40;;;;;;5033430;28;20520;-56
2022/11/26 05:25:00;;;;;;;12.10;11.70;;;20.60;65.40;;;;;;5033947;28;20455;-58
2022/11/26 05:27:27;;;;;;;11.13;10.83;;;20.70;65.50;;;;;;5049276;28;20474;-56
2022/11/26 05:29:54;;;;;;;11.80;11.40;;;20.60;65.30;;;;;;5053611;28;20491;-56
2022/11/26 05:32:21;;;;;;;11.13;10.83;;;20.70;65.40;;;;;;5053298;28;20444;-58
2022/11/26 05:34:49;;;;;;;11.07;10.77;;;20.70;65.30;;;;;;5053582;28;20444;-59
2022/11/26 05:37:16;;;;;;;11.77;11.37;;;20.70;65.30;;;;;;5039349;28;20445;-58
2022/11/26 05:39:43;;;;;;;11.30;11.00;;;20.70;65.40;;;;;;5033594;28;20487;-57
2022/11/26 05:42:09;;;;;;;12.20;11.80;;;20.70;65.50;;;;;;5033284;28;20560;-56
2022/11/26 05:44:36;;;;;;;12.37;12.07;;;20.70;65.50;;;;;;5039039;28;20444;-59
2022/11/26 05:47:03;;;;;;;12.10;11.70;;;20.70;65.40;;;;;;5053373;28;20440;-58
2022/11/26 05:49:30;;;;;;;11.73;11.43;;;20.70;65.30;;;;;;5053126;28;20466;-57
2022/11/26 05:51:58;;;;;;;11.80;11.40;;;20.80;65.30;;;;;;5053052;28;20441;-56
2022/11/26 05:54:25;;;;;;;11.57;11.17;;;20.80;65.30;;;;;;5035252;28;20445;-57
2022/11/26 05:56:52;;;;;;;11.97;11.27;;;20.80;65.20;;;;;;5033287;28;20449;-59
2022/11/26 05:59:19;;;;;;;11.90;11.50;;;20.80;65.20;;;;;;5033175;28;20547;-58
2022/11/26 06:01:46;;;;;;;11.87;11.57;;;20.80;65.30;;;;;;5033050;28;20575;-58
2022/11/26 06:04:12;;;;;;;12.63;12.23;;;20.80;65.30;;;;;;5048823;28;20476;-58
2022/11/26 06:06:39;;;;;;;12.37;11.97;;;20.80;65.40;;;;;;5053022;28;20523;-59
2022/11/26 06:09:07;;;;;;;11.83;11.40;;;20.80;65.40;;;;;;5052681;28;20502;-58
2022/11/26 06:11:34;;;;;;;12.40;12.00;;;20.90;65.40;;;;;;5052680;28;20865;-58
2022/11/26 06:14:01;;;;;;;13.80;13.30;;;20.90;65.30;;;;;;5038359;28;20445;-58
2022/11/26 06:16:28;;;;;;;13.17;12.77;;;20.90;65.30;;;;;;5032890;28;20476;-58
2022/11/26 06:18:55;;;;;;;14.30;13.80;;;20.90;65.30;;;;;;5048854;28;20468;-57
2022/11/26 06:21:22;;;;;;;13.73;13.23;;;20.90;65.20;;;;;;5052468;28;20596;-57
2022/11/26 06:23:49;;;;;;;14.57;13.10;;;20.90;65.20;;;;;;5040123;28;20445;-58
2022/11/26 06:26:17;;;;;;;13.03;12.63;;;20.90;65.20;;;;;;5032772;28;20483;-58
2022/11/26 06:28:44;;;;;;;13.90;13.33;;;20.90;65.30;;;;;;5032550;28;20548;-58
2022/11/26 06:31:11;;;;;;;12.30;11.90;;;20.90;65.30;;;;;;5032459;28;20448;-55
2022/11/26 06:33:38;;;;;;;12.50;12.00;;;20.90;65.40;;;;;;5042788;28;20448;-59
2022/11/26 06:36:05;;;;;;;13.00;12.50;;;20.90;65.50;;;;;;5052390;28;20470;-59
2022/11/26 06:38:33;;;;;;;13.13;12.73;;;21.00;65.50;;;;;;5052408;28;20531;-58
2022/11/26 06:41:00;;;;;;;12.93;12.30;;;21.00;65.50;;;;;;5052133;28;20488;-58
2022/11/26 06:43:28;;;;;;;12.30;12.00;;;21.00;65.40;;;;;;5050491;28;20444;-58
2022/11/26 06:45:55;;;;;;;11.80;11.40;;;21.10;65.70;;;;;;5047880;28;20445;-59
2022/11/26 06:48:24;;;;;;;13.07;12.67;;;21.10;65.60;;;;;;5032229;28;20670;-59
2022/11/26 06:50:51;;;;;;;11.97;11.57;;;21.00;65.40;;;;;;5032364;28;20459;-59
2022/11/26 06:53:18;;;;;;;11.80;11.40;;;21.00;65.60;;;;;;5036024;28;20440;-56
2022/11/26 06:55:45;;;;;;;12.37;11.60;;;21.00;65.50;;;;;;5042918;28;20476;-59
2022/11/26 06:58:13;;;;;;;12.83;12.33;;;21.00;65.60;;;;;;5052069;28;20471;-58
2022/11/26 07:00:42;;;;;;;12.20;11.80;;;21.00;65.40;;;;;;5051887;28;20472;-57
2022/11/26 07:03:09;;;;;;;12.40;12.00;;;21.10;65.70;;;;;;5045511;28;21034;-58
2022/11/26 07:05:36;;;;;;;12.67;12.23;;;21.10;65.80;;;;;;5031993;28;20453;-58
2022/11/26 07:08:03;;;;;;;11.83;11.53;;;21.10;65.80;;;;;;5031944;28;20907;-54
2022/11/26 07:10:30;;;;;;;12.50;12.10;;;21.20;65.90;;;;;;5032203;28;21002;-57
2022/11/26 07:12:57;;;;;;;12.00;11.60;;;21.20;65.90;;;;;;5035226;28;20443;-54
2022/11/26 07:15:24;;;;;;;12.13;11.63;;;21.20;65.90;;;;;;5051699;28;20941;-55
2022/11/26 07:17:52;;;;;;;13.20;12.73;;;21.20;65.80;;;;;;5051793;28;20491;-57
2022/11/26 07:20:19;;;;;;;12.33;11.93;;;21.20;65.70;;;;;;5045487;28;20464;-54
2022/11/26 07:22:46;;;;;;;13.30;12.73;;;21.20;65.80;;;;;;5051470;28;20842;-57
2022/11/26 07:25:13;;;;;;;13.07;12.67;;;21.20;65.70;;;;;;5051584;28;20440;-57
2022/11/26 07:27:40;;;;;;;12.50;12.00;;;21.20;65.70;;;;;;5051654;28;20962;-56
2022/11/26 07:30:08;;;;;;;11.83;11.43;;;21.20;65.70;;;;;;5043442;28;20537;-57
2022/11/26 07:32:35;;;;;;;12.70;12.30;;;21.20;65.70;;;;;;5031499;28;20478;-56
2022/11/26 07:35:04;;;;;;;12.87;12.40;;;21.20;66.60;;;;;;5031654;28;20532;-57
2022/11/26 07:37:32;;;;;;;12.80;12.23;;;21.20;66.00;;;;;;5031539;28;20531;-57
2022/11/26 07:39:59;;;;;;;12.90;12.50;;;21.30;66.00;;;;;;5032589;28;20906;-59
2022/11/26 07:42:26;;;;;;;13.30;12.90;;;21.30;66.00;;;;;;5031307;28;20911;-58
2022/11/26 07:44:53;;;;;;;13.80;13.10;;;21.30;66.00;;;;;;5031533;28;20991;-56
2022/11/26 07:47:19;;;;;;;14.57;14.07;;;21.30;66.00;;;;;;5031576;28;20453;-55
2022/11/26 07:49:46;;;;;;;13.53;13.13;;;21.30;66.00;;;;;;5035679;28;20468;-56
2022/11/26 07:52:14;;;;;;;13.63;13.17;;;21.30;65.90;;;;;;5051168;28;20833;-58
2022/11/26 07:54:41;;;;;;;13.60;13.20;;;21.30;65.80;;;;;;5051217;28;20963;-55
2022/11/26 07:57:08;;;;;;;13.60;13.17;;;21.30;65.90;;;;;;5051252;28;20524;-56
2022/11/26 07:59:35;;;;;;;13.93;13.53;;;21.30;66.00;;;;;;5034343;28;20910;-57
2022/11/26 08:02:02;;;;;;;13.37;12.97;;;21.30;66.70;;;;;;5031100;28;20596;-59
2022/11/26 08:04:29;;;;;;;13.13;12.73;;;21.30;65.90;;;;;;5031425;28;20451;-57
2022/11/26 08:06:56;;;;;;;13.67;13.27;;;21.30;65.80;;;;;;5032548;28;20531;-58
2022/11/26 08:09:24;;;;;;;13.00;12.60;;;21.30;66.30;;;;;;5033478;28;20843;-52
2022/11/26 08:11:50;;;;;;;13.40;13.00;;;21.40;68.80;;;;;;5031045;28;20448;-54
2022/11/26 08:14:17;;;;;;;12.03;11.63;;;21.50;66.90;;;;;;5033199;28;20445;-56
2022/11/26 08:16:44;;;;;;;12.60;12.20;;;21.60;66.80;;;;;;5035119;28;21019;-52
2022/11/26 08:19:13;;;;;;;12.63;12.13;;;21.70;66.30;;;;;;5054717;28;20562;-53
2022/11/26 08:21:40;;;;;;;12.07;11.70;;;21.80;65.90;;;;;;5054792;28;20475;-54
2022/11/26 08:24:08;;;;;;;12.83;12.47;;;21.90;65.30;;;;;;5054877;28;20877;-53
2022/11/26 08:26:36;;;;;;;13.17;12.73;;;22.00;65.20;;;;;;5054895;28;20442;-52
2022/11/26 08:29:03;;;;;;;12.10;11.63;;;22.10;64.80;;;;;;5054095;28;20474;-51
2022/11/26 08:31:30;;;;;;;14.23;13.57;;;22.10;64.60;;;;;;5054761;28;20440;-51
2022/11/26 08:33:58;;;;;;;13.13;12.63;;;22.20;64.50;;;;;;5054755;28;20444;-51
2022/11/26 08:36:25;;;;;;;12.67;12.17;;;22.30;64.90;;;;;;5054632;28;20472;-52
2022/11/26 08:38:52;;;;;;;13.40;12.90;;;22.40;63.90;;;;;;5050037;28;20555;-52
2022/11/26 08:41:19;;;;;;;12.87;12.47;;;22.50;63.80;;;;;;5054354;28;20879;-52
2022/11/26 08:43:47;;;;;;;12.53;12.13;;;22.50;63.50;;;;;;5054595;28;20448;-52
2022/11/26 08:46:14;;;;;;;13.10;12.50;;;22.50;63.30;;;;;;5054463;28;20484;-51
2022/11/26 08:48:41;;;;;;;12.47;12.07;;;22.50;63.30;;;;;;5039434;28;20508;-52
2022/11/26 08:51:10;;;;;;;12.93;12.53;;;22.50;63.30;;;;;;5034252;28;20498;-51
2022/11/26 08:53:38;;;;;;;13.53;13.13;;;22.40;63.30;;;;;;5034312;28;20447;-52
2022/11/26 08:56:07;;;;;;;12.53;11.93;;;22.40;63.50;;;;;;5034312;28;21011;-53
2022/11/26 08:58:34;;;;;;;13.43;12.80;;;22.40;63.70;;;;;;5034189;28;20441;-51
2022/11/26 09:01:09;;;;;;;12.73;12.03;;;22.30;63.60;;;;;;5048632;28;20460;-49
2022/11/26 09:03:35;;;;;;;12.83;12.43;;;22.30;63.80;;;;;;5053975;28;20483;-55
2022/11/26 09:06:03;;;;;;;12.47;12.07;;;22.30;63.90;;;;;;5054163;28;20444;-51
2022/11/26 09:08:30;;;;;;;13.87;13.37;;;22.30;64.00;;;;;;5052174;28;20804;-52
2022/11/26 09:10:57;;;;;;;13.10;12.60;;;22.30;64.10;;;;;;5053839;28;20562;-49
2022/11/26 09:13:24;;;;;;;13.50;13.00;;;22.30;64.20;;;;;;5053822;28;20440;-52
2022/11/26 09:15:51;;;;;;;14.00;13.60;;;22.30;64.30;;;;;;5053998;28;20476;-52
2022/11/26 09:18:19;;;;;;;13.63;13.23;;;22.30;64.30;;;;;;5052259;28;20446;-50
2022/11/26 09:20:46;;;;;;;13.10;12.70;;;22.30;64.40;;;;;;5053914;28;20502;-50
2022/11/26 09:23:13;;;;;;;13.87;13.43;;;22.30;64.50;;;;;;5053415;28;20472;-50
2022/11/26 09:25:40;;;;;;;14.03;13.50;;;22.30;64.50;;;;;;5053377;28;20820;-51
2022/11/26 09:28:07;;;;;;;13.80;13.30;;;22.20;64.50;;;;;;5053769;28;20444;-51
2022/11/26 09:30:33;;;;;;;12.67;12.20;;;22.20;64.60;;;;;;5047853;28;20552;-52
2022/11/26 09:33:00;;;;;;;12.67;12.33;;;22.20;64.60;;;;;;5043816;28;20447;-53
2022/11/26 09:35:29;;;;;;;14.20;13.70;;;22.30;64.90;;;;;;5053637;28;20877;-51
2022/11/26 09:37:56;;;;;;;13.40;13.00;;;22.30;64.90;;;;;;5053473;28;20444;-52
2022/11/26 09:40:29;;;;;;;12.97;12.57;;;22.30;65.00;;;;;;5053516;28;20460;-51
2022/11/26 09:43:04;;;;;;;13.50;13.10;;;22.30;65.00;;;;;;5047269;28;20480;-51
2022/11/26 09:45:40;;;;;;;12.93;12.43;;;22.30;64.90;;;;;;5053464;28;20471;-53
2022/11/26 09:48:15;;;;;;;13.30;12.90;;;22.30;65.70;;;;;;5053328;28;20449;-51
2022/11/26 09:50:45;;;;;;;13.37;12.87;;;22.30;65.00;;;;;;5053219;28;20550;-52
2022/11/26 09:53:17;;;;;;;13.37;12.97;;;22.30;65.10;;;;;;5053100;28;20531;-52
2022/11/26 09:55:48;;;;;;;12.90;12.50;;;22.30;65.10;;;;;;5049380;28;20475;-59
2022/11/26 09:58:20;;;;;;;13.20;12.80;;;22.30;65.10;;;;;;5043089;28;20477;-59
2022/11/26 10:00:49;;;;;;;12.63;12.23;;;22.40;65.50;;;;;;5033654;28;20836;-56
2022/11/26 10:03:18;;;;;;;13.10;12.70;;;22.50;65.10;;;;;;5033163;28;20473;-59
2022/11/26 10:05:52;;;;;;;13.20;12.80;;;22.60;64.70;;;;;;5033042;28;20451;-57
2022/11/26 10:08:41;;;;;;;12.17;11.87;;;22.60;64.40;;;;;;5052042;28;20484;-55
2022/11/26 10:11:16;;;;;;;11.80;11.50;;;22.80;64.50;;;;;;5052855;28;20451;-56
2022/11/26 10:13:50;;;;;;;12.43;11.90;;;22.80;63.80;;;;;;5053018;28;20519;-56
2022/11/26 10:16:26;;;;;;;12.10;11.80;;;22.90;63.50;;;;;;5036695;28;20875;-53
2022/11/26 10:19:02;;;;;;;12.30;11.90;;;23.00;63.30;;;;;;5032860;28;20456;-55
2022/11/26 10:21:34;;;;;;;12.97;12.57;;;23.00;63.00;;;;;;5032728;28;20447;-50
2022/11/26 10:24:06;;;;;;;13.17;12.67;;;23.10;63.50;;;;;;5032780;28;20485;-55
2022/11/26 10:26:35;;;;;;;13.33;12.93;;;23.20;63.70;;;;;;5050633;28;20448;-53
2022/11/26 10:29:22;;;;;;;13.10;12.70;;;23.30;64.90;;;;;;5053015;28;20496;-56
2022/11/26 10:31:52;;;;;;;12.87;12.27;;;23.20;61.80;;;;;;5052730;28;20440;-57
2022/11/26 10:34:23;;;;;;;13.30;12.90;;;23.20;62.30;;;;;;5052898;28;20474;-58
2022/11/26 10:36:52;;;;;;;14.03;13.10;;;23.20;62.50;;;;;;5050798;28;20479;-57
2022/11/26 10:39:20;;;;;;;14.60;13.90;;;23.30;62.70;;;;;;5048233;28;20547;-57
2022/11/26 10:41:48;;;;;;;16.13;15.20;;;23.40;63.50;;;;;;5052172;28;20440;-58
2022/11/26 10:44:33;;;;;;;17.17;15.40;;;23.50;64.00;;;;;;5052209;28;20480;-56
2022/11/26 10:47:18;;;;;;;22.07;16.33;;;23.50;68.40;;;;;;5052272;28;20440;-55
2022/11/26 10:49:45;;;;;;;16.87;15.53;;;23.60;72.20;;;;;;5043127;28;20833;-59
2022/11/26 10:52:17;;;;;;;18.73;14.40;;;23.60;79.70;;;;;;5032236;28;20811;-61
2022/11/26 10:54:44;;;;;;;17.37;16.07;;;23.60;73.10;;;;;;5032328;28;20468;-55
2022/11/26 10:57:15;;;;;;;17.63;16.03;;;23.70;69.40;;;;;;5032286;28;20447;-56
2022/11/26 10:59:50;;;;;;;17.43;15.80;;;23.80;68.90;;;;;;5032050;28;20496;-57
2022/11/26 11:02:31;;;;;;;17.07;15.57;;;23.80;66.90;;;;;;5030812;28;20506;-58
2022/11/26 11:05:01;;;;;;;16.77;15.37;;;23.90;65.70;;;;;;5031736;28;20857;-59
2022/11/26 11:07:38;;;;;;;17.23;15.60;;;24.00;64.90;;;;;;5032120;28;20480;-58
2022/11/26 11:10:13;;;;;;;15.30;14.30;;;24.10;64.20;;;;;;5031827;28;20491;-58
2022/11/26 11:12:42;;;;;;;15.43;14.20;;;24.20;63.60;;;;;;5031961;28;20524;-58
2022/11/26 11:15:22;;;;;;;16.03;14.83;;;24.30;63.00;;;;;;5031941;28;20479;-55
2022/11/26 11:17:55;;;;;;;16.90;15.40;;;24.40;62.50;;;;;;5032789;28;20928;-54
2022/11/26 11:20:34;;;;;;;14.40;13.70;;;24.40;62.70;;;;;;5031900;28;20552;-55
2022/11/26 11:23:06;;;;;;;15.63;14.33;;;24.50;61.50;;;;;;5031756;28;20481;-57
2022/11/26 11:25:34;;;;;;;17.20;15.67;;;24.50;61.20;;;;;;5031887;28;20438;-57
2022/11/26 11:28:05;;;;;;;15.27;14.27;;;24.40;60.80;;;;;;5031936;28;21112;-55
2022/11/26 11:30:36;;;;;;;14.33;13.73;;;24.40;60.50;;;;;;5033479;28;22274;-54
2022/11/26 11:33:20;;;;;;;15.37;14.17;;;24.30;61.70;;;;;;5035131;28;20532;-53
2022/11/26 11:36:01;;;;;;;15.60;14.63;;;24.10;66.80;;;;;;5031705;28;20449;-57
2022/11/26 11:38:31;;;;;;;18.77;17.07;;;24.10;65.80;;;;;;5031715;28;20539;-57
2022/11/26 11:41:02;;;;;;;20.47;19.20;;;23.90;64.10;;;;;;5040949;28;20451;-56
2022/11/26 11:43:29;;;;;;;59.63;39.40;;;23.90;64.30;;;;;;5051446;28;20488;-51
2022/11/26 11:46:09;;;;;;;18.90;17.33;;;23.90;64.50;;;;;;5051646;28;20866;-49
2022/11/26 11:48:48;;;;;;;20.20;18.57;;;23.90;65.70;;;;;;5055699;28;20471;-51
2022/11/26 11:51:24;;;;;;;19.63;18.03;;;23.90;66.70;;;;;;5045936;28;21017;-52
2022/11/26 11:54:03;;;;;;;20.83;19.00;;;23.80;65.20;;;;;;5038106;28;20472;-53
2022/11/26 11:56:36;;;;;;;20.43;18.63;;;23.80;65.70;;;;;;5038044;28;20448;-54
2022/11/26 11:59:46;;;;;;;19.17;17.37;;;23.80;65.90;;;;;;5037977;28;20551;-53
2022/11/26 12:02:39;;;;;;;22.63;20.63;;;23.80;67.70;;;;;;5037806;28;20453;-50
2022/11/26 12:05:33;;;;;;;17.70;16.37;;;23.90;66.60;;;;;;5037946;28;20990;-48
2022/11/26 12:08:12;;;;;;;18.73;17.13;;;23.80;66.10;;;;;;5037921;28;20451;-57
2022/11/26 12:10:47;;;;;;;17.90;16.47;;;23.80;66.00;;;;;;5057806;28;20504;-57
2022/11/26 12:13:16;;;;;;;17.43;16.13;;;23.90;66.00;;;;;;5057640;28;20529;-53
2022/11/26 12:15:50;;;;;;;18.67;17.20;;;23.90;66.20;;;;;;5057984;28;20867;-51
2022/11/26 12:18:22;;;;;;;19.87;18.50;;;23.90;65.40;;;;;;5057133;28;20450;-50
2022/11/26 12:20:54;;;;;;;18.73;17.30;;;23.90;65.40;;;;;;5057944;28;20805;-52
2022/11/26 12:23:28;;;;;;;18.00;16.83;;;23.90;65.20;;;;;;5057897;28;20487;-51
2022/11/26 12:26:01;;;;;;;17.17;16.10;;;23.90;65.50;;;;;;5058000;28;20519;-54
2022/11/26 12:28:31;;;;;;;17.67;16.40;;;24.00;65.80;;;;;;5056033;28;20530;-52
2022/11/26 12:31:04;;;;;;;17.20;16.00;;;23.90;64.90;;;;;;5057702;28;20475;-51
2022/11/26 12:33:35;;;;;;;16.67;15.57;;;24.00;66.20;;;;;;5057959;28;20466;-48
2022/11/26 12:36:11;;;;;;;16.30;15.13;;;24.00;65.50;;;;;;5057848;28;20461;-51
2022/11/26 12:38:44;;;;;;;16.00;14.80;;;24.00;66.20;;;;;;5055961;28;20442;-51
2022/11/26 12:41:16;;;;;;;17.40;16.37;;;24.00;65.10;;;;;;5055852;28;20451;-51